Sirius — JD2507 — position and weather

sailwx.info

Track history (hours):
 
Tides and Currents Weather Stations Pressure Air Temp Water Temp Dewpoint Dewpoint Depression Visibility Wind Speed Wind Dir Waves Ship Positions

Sirius

Last reported at 2017-Nov-19 01:36 UTC. Time now 2017-Nov-22 01:36 UTC.
Position N 34°40' E 135°12'.

Length 38 m; draft 2 m.

Type: Other ship. MMSI: 431000347.

Date/timePositionNaut miles runAvg speedWind from/ knotsBaromVisibWave heightAir tempDewpointWater temp
2017-Nov-19 01:36N 34°40' E 135°12'0 3.7
2017-Nov-19 01:30N 34°40' E 135°12'814.5
2017-Nov-19 00:56N 34°37' E 135°03'3 5.6
2017-Nov-19 00:26N 34°38' E 134°59'613.2
2017-Nov-19 00:00N 34°35' E 135°06'2 3.4
2017-Nov-18 23:30N 34°35' E 135°08'4 8.1
2017-Nov-18 22:57N 34°38' E 135°03'0 0.0
2017-Nov-18 21:06N 34°38' E 135°03'1 5.9
2017-Nov-18 20:58N 34°38' E 135°02'1 1.6
2017-Nov-18 20:29N 34°37' E 135°01'611.6
2017-Nov-18 20:00N 34°34' E 135°07'1 2.8
2017-Nov-18 19:30N 34°33' E 135°08'4 7.0
2017-Nov-18 19:00N 34°30' E 135°06'1311.8
2017-Nov-18 17:52N 34°18' E 134°59'512.2
2017-Nov-18 17:29N 34°13' E 134°60'3 5.4
2017-Nov-18 16:59N 34°11' E 134°58'19 1.6
2017-Nov-18 05:13N 34°29' E 135°00'617.8
2017-Nov-18 04:52N 34°35' E 135°04'5 4.9
2017-Nov-18 03:56N 34°38' E 134°59'3 6.8
2017-Nov-18 03:30N 34°38' E 135°03'0 0.1
2017-Nov-18 03:00N 34°38' E 135°03'0 0.1
2017-Nov-18 02:30N 34°38' E 135°03'0 0.0
2017-Nov-17 20:44N 34°38' E 135°03'2 9.1
2017-Nov-17 20:29N 34°38' E 135°00'1 1.8
2017-Nov-17 19:55N 34°37' E 135°01'410.1
2017-Nov-17 19:30N 34°35' E 135°05'4 8.7
2017-Nov-17 19:00N 34°37' E 135°01'0 0.7
2017-Nov-17 18:29N 34°37' E 135°01'5 9.1
2017-Nov-17 17:59N 34°35' E 135°05'2 4.1
2017-Nov-17 17:30N 34°34' E 135°08'4 8.5
2017-Nov-17 17:00N 34°37' E 135°04'1 0.1
2017-Nov-17 10:57N 34°38' E 135°03'3 6.0
2017-Nov-17 10:30N 34°35' E 135°04'3 2.5
2017-Nov-17 09:14N 34°38' E 135°02'1 3.5
2017-Nov-17 08:59N 34°38' E 135°03'0 0.0
2017-Nov-17 08:29N 34°38' E 135°03'0 0.0
2017-Nov-17 08:00N 34°38' E 135°03'0 0.0
2017-Nov-17 02:42N 34°38' E 135°03'211.8
2017-Nov-17 02:30N 34°36' E 135°04'2 1.7
2017-Nov-17 01:14N 34°37' E 135°03'0 0.1
2017-Nov-17 01:00N 34°38' E 135°03'0 0.0
2017-Nov-16 19:50N 34°38' E 135°03'3 9.4
2017-Nov-16 19:30N 34°38' E 134°59'3 5.9
2017-Nov-16 19:00N 34°37' E 135°02'510.4
2017-Nov-16 18:31N 34°35' E 135°09'2 3.9
2017-Nov-16 18:00N 34°35' E 135°11'4 7.5
2017-Nov-16 17:30N 34°38' E 135°11'2 4.4
2017-Nov-16 17:00N 34°40' E 135°12'0 0.0
2017-Nov-15 07:11N 34°40' E 135°12'2 9.5
2017-Nov-15 07:00N 34°39' E 135°12'2 3.2
2017-Nov-15 06:30N 34°40' E 135°12'0 0.0
2017-Nov-14 09:12N 34°40' E 135°12'2 9.1
2017-Nov-14 09:00N 34°39' E 135°11'713.7
2017-Nov-14 08:28N 34°36' E 135°03'5 6.3
2017-Nov-14 07:44N 34°38' E 134°58'4 1.6
2017-Nov-14 05:05N 34°38' E 135°03'110.7
2017-Nov-14 05:00N 34°37' E 135°04'2 1.4
2017-Nov-14 03:50N 34°38' E 135°02'1 0.0
2017-Nov-12 00:47N 34°37' E 135°01'311.8
2017-Nov-12 00:30N 34°36' E 135°04'4 7.4
2017-Nov-12 00:00N 34°34' E 135°08'5 9.1
2017-Nov-11 23:30N 34°29' E 135°07'1612.8
2017-Nov-11 22:16N 34°15' E 134°59'311.1
2017-Nov-11 22:00N 34°12' E 134°59'2 3.1
2017-Nov-11 21:29N 34°10' E 134°59'19 1.6
2017-Nov-11 09:38N 34°29' E 135°00'317.1
2017-Nov-11 09:29N 34°32' E 135°02'510.1
2017-Nov-11 09:00N 34°37' E 135°01'1 1.0
2017-Nov-11 08:12N 34°37' E 135°01'313.3
2017-Nov-11 08:00N 34°36' E 135°04'713.3
2017-Nov-11 07:30N 34°39' E 135°11'2 3.2
2017-Nov-11 07:00N 34°40' E 135°12'0 0.0
2017-Nov-09 09:50N 34°40' E 135°12'412.8
2017-Nov-09 09:30N 34°37' E 135°09'713.3
2017-Nov-09 09:00N 34°37' E 135°01'1 0.7
2017-Nov-09 07:38N 34°37' E 134°60'2 6.2
2017-Nov-09 07:17N 34°35' E 135°02'2 8.4
2017-Nov-09 07:00N 34°35' E 135°05'6 5.4
2017-Nov-09 05:56N 34°38' E 134°59'4 8.7
2017-Nov-09 05:30N 34°38' E 135°03'0 0.0
2017-Nov-09 05:00N 34°38' E 135°03'0 0.0
2017-Nov-09 04:30N 34°38' E 135°03'  
Track history (hours):
 
Tides and Currents Weather Stations Pressure Air Temp Water Temp Dewpoint Dewpoint Depression Visibility Wind Speed Wind Dir Waves Ship Positions

Sirius

Last reported at 2017-Nov-19 01:36 UTC. Time now 2017-Nov-22 01:36 UTC.
Position N 34°40' E 135°12'.

Length 38 m; draft 2 m.

Type: Other ship. MMSI: 431000347.

Date/timePositionNaut miles runAvg speedWind from/ knotsBaromVisibWave heightAir tempDewpointWater temp
2017-Nov-19 01:36N 34°40' E 135°12'0 3.7
2017-Nov-19 01:30N 34°40' E 135°12'814.5
2017-Nov-19 00:56N 34°37' E 135°03'3 5.6
2017-Nov-19 00:26N 34°38' E 134°59'613.2
2017-Nov-19 00:00N 34°35' E 135°06'2 3.4
2017-Nov-18 23:30N 34°35' E 135°08'4 8.1
2017-Nov-18 22:57N 34°38' E 135°03'0 0.0
2017-Nov-18 21:06N 34°38' E 135°03'1 5.9
2017-Nov-18 20:58N 34°38' E 135°02'1 1.6
2017-Nov-18 20:29N 34°37' E 135°01'611.6
2017-Nov-18 20:00N 34°34' E 135°07'1 2.8
2017-Nov-18 19:30N 34°33' E 135°08'4 7.0
2017-Nov-18 19:00N 34°30' E 135°06'1311.8
2017-Nov-18 17:52N 34°18' E 134°59'512.2
2017-Nov-18 17:29N 34°13' E 134°60'3 5.4
2017-Nov-18 16:59N 34°11' E 134°58'19 1.6
2017-Nov-18 05:13N 34°29' E 135°00'617.8
2017-Nov-18 04:52N 34°35' E 135°04'5 4.9
2017-Nov-18 03:56N 34°38' E 134°59'3 6.8
2017-Nov-18 03:30N 34°38' E 135°03'0 0.1
2017-Nov-18 03:00N 34°38' E 135°03'0 0.1
2017-Nov-18 02:30N 34°38' E 135°03'0 0.0
2017-Nov-17 20:44N 34°38' E 135°03'2 9.1
2017-Nov-17 20:29N 34°38' E 135°00'1 1.8
2017-Nov-17 19:55N 34°37' E 135°01'410.1
2017-Nov-17 19:30N 34°35' E 135°05'4 8.7
2017-Nov-17 19:00N 34°37' E 135°01'0 0.7
2017-Nov-17 18:29N 34°37' E 135°01'5 9.1
2017-Nov-17 17:59N 34°35' E 135°05'2 4.1
2017-Nov-17 17:30N 34°34' E 135°08'4 8.5
2017-Nov-17 17:00N 34°37' E 135°04'1 0.1
2017-Nov-17 10:57N 34°38' E 135°03'3 6.0
2017-Nov-17 10:30N 34°35' E 135°04'3 2.5
2017-Nov-17 09:14N 34°38' E 135°02'1 3.5
2017-Nov-17 08:59N 34°38' E 135°03'0 0.0
2017-Nov-17 08:29N 34°38' E 135°03'0 0.0
2017-Nov-17 08:00N 34°38' E 135°03'0 0.0
2017-Nov-17 02:42N 34°38' E 135°03'211.8
2017-Nov-17 02:30N 34°36' E 135°04'2 1.7
2017-Nov-17 01:14N 34°37' E 135°03'0 0.1
2017-Nov-17 01:00N 34°38' E 135°03'0 0.0
2017-Nov-16 19:50N 34°38' E 135°03'3 9.4
2017-Nov-16 19:30N 34°38' E 134°59'3 5.9
2017-Nov-16 19:00N 34°37' E 135°02'510.4
2017-Nov-16 18:31N 34°35' E 135°09'2 3.9
2017-Nov-16 18:00N 34°35' E 135°11'4 7.5
2017-Nov-16 17:30N 34°38' E 135°11'2 4.4
2017-Nov-16 17:00N 34°40' E 135°12'0 0.0
2017-Nov-15 07:11N 34°40' E 135°12'2 9.5
2017-Nov-15 07:00N 34°39' E 135°12'2 3.2
2017-Nov-15 06:30N 34°40' E 135°12'0 0.0
2017-Nov-14 09:12N 34°40' E 135°12'2 9.1
2017-Nov-14 09:00N 34°39' E 135°11'713.7
2017-Nov-14 08:28N 34°36' E 135°03'5 6.3
2017-Nov-14 07:44N 34°38' E 134°58'4 1.6
2017-Nov-14 05:05N 34°38' E 135°03'110.7
2017-Nov-14 05:00N 34°37' E 135°04'2 1.4
2017-Nov-14 03:50N 34°38' E 135°02'1 0.0
2017-Nov-12 00:47N 34°37' E 135°01'311.8
2017-Nov-12 00:30N 34°36' E 135°04'4 7.4
2017-Nov-12 00:00N 34°34' E 135°08'5 9.1
2017-Nov-11 23:30N 34°29' E 135°07'1612.8
2017-Nov-11 22:16N 34°15' E 134°59'311.1
2017-Nov-11 22:00N 34°12' E 134°59'2 3.1
2017-Nov-11 21:29N 34°10' E 134°59'19 1.6
2017-Nov-11 09:38N 34°29' E 135°00'317.1
2017-Nov-11 09:29N 34°32' E 135°02'510.1
2017-Nov-11 09:00N 34°37' E 135°01'1 1.0
2017-Nov-11 08:12N 34°37' E 135°01'313.3
2017-Nov-11 08:00N 34°36' E 135°04'713.3
2017-Nov-11 07:30N 34°39' E 135°11'2 3.2
2017-Nov-11 07:00N 34°40' E 135°12'0 0.0
2017-Nov-09 09:50N 34°40' E 135°12'412.8
2017-Nov-09 09:30N 34°37' E 135°09'713.3
2017-Nov-09 09:00N 34°37' E 135°01'1 0.7
2017-Nov-09 07:38N 34°37' E 134°60'2 6.2
2017-Nov-09 07:17N 34°35' E 135°02'2 8.4
2017-Nov-09 07:00N 34°35' E 135°05'6 5.4
2017-Nov-09 05:56N 34°38' E 134°59'4 8.7
2017-Nov-09 05:30N 34°38' E 135°03'0 0.0
2017-Nov-09 05:00N 34°38' E 135°03'0 0.0
2017-Nov-09 04:30N 34°38' E 135°03'  

Dump ship's entire track history